createdAt,value
2022-12-20T00:01:27.571Z,2.30
2022-12-20T00:03:57.421Z,2.17
2022-12-20T00:06:25.443Z,2.20
2022-12-20T00:08:57.695Z,2.60
2022-12-20T00:11:25.718Z,2.70
2022-12-20T00:13:53.198Z,2.40
2022-12-20T00:16:22.844Z,2.92
2022-12-20T00:18:55.584Z,2.30
2022-12-20T00:21:23.199Z,2.53
2022-12-20T00:23:51.105Z,2.25
2022-12-20T00:26:20.936Z,2.38
2022-12-20T00:28:48.235Z,2.03
2022-12-20T00:31:17.974Z,2.80
2022-12-20T00:33:50.725Z,2.30
2022-12-20T00:36:18.626Z,2.72
2022-12-20T00:38:50.657Z,2.63
2022-12-20T00:41:20.318Z,3.03
2022-12-20T00:43:48.284Z,2.53
2022-12-20T00:46:16.703Z,2.10
2022-12-20T00:48:44.245Z,2.17
2022-12-20T00:51:14.720Z,2.38
2022-12-20T00:53:42.805Z,2.13
2022-12-20T00:56:10.372Z,2.72
2022-12-20T00:58:39.819Z,1.77
2022-12-20T01:01:14.971Z,2.13
2022-12-20T01:03:42.681Z,2.20
2022-12-20T01:06:11.004Z,2.30
2022-12-20T01:08:38.453Z,2.20
2022-12-20T01:11:17.580Z,2.35
2022-12-20T01:13:48.157Z,2.42
2022-12-20T01:16:22.519Z,2.20
2022-12-20T01:18:50.304Z,2.20
2022-12-20T01:21:19.202Z,2.55
2022-12-20T01:23:46.826Z,2.85
2022-12-20T01:26:17.130Z,2.10
2022-12-20T01:28:46.776Z,2.17
2022-12-20T01:31:16.431Z,2.30
2022-12-20T01:33:44.637Z,2.50
2022-12-20T01:36:15.009Z,3.10
2022-12-20T01:38:42.328Z,1.85
2022-12-20T01:41:16.999Z,1.92
2022-12-20T01:43:50.397Z,1.67
2022-12-20T01:46:18.184Z,1.70
2022-12-20T01:49:10.738Z,2.08
2022-12-20T01:51:46.103Z,2.10
2022-12-20T01:54:25.482Z,1.90
2022-12-20T01:57:02.295Z,2.10
2022-12-20T01:59:30.259Z,1.80
2022-12-20T02:01:59.917Z,1.98
2022-12-20T02:04:27.449Z,2.50
2022-12-20T02:06:54.876Z,2.35
2022-12-20T02:09:22.107Z,1.95
2022-12-20T02:12:09.656Z,2.28
2022-12-20T02:14:55.519Z,2.03
2022-12-20T02:17:41.800Z,2.35
2022-12-20T02:20:40.232Z,2.33
2022-12-20T02:23:33.432Z,2.45
2022-12-20T02:26:30.343Z,2.08
2022-12-20T02:29:35.381Z,2.35
2022-12-20T02:32:05.905Z,2.30
2022-12-20T02:34:35.952Z,2.30
2022-12-20T02:37:03.461Z,2.60
2022-12-20T02:39:31.907Z,2.63
2022-12-20T02:42:06.416Z,2.90
2022-12-20T02:44:54.364Z,3.15
2022-12-20T02:47:28.932Z,2.72
2022-12-20T02:49:56.558Z,2.47
2022-12-20T02:52:27.287Z,2.33
2022-12-20T02:54:55.994Z,3.05
2022-12-20T02:57:48.003Z,2.63
2022-12-20T03:00:18.376Z,2.83
2022-12-20T03:03:05.085Z,2.53
2022-12-20T03:05:35.518Z,3.35
2022-12-20T03:08:02.991Z,2.50
2022-12-20T03:10:30.533Z,2.40
2022-12-20T03:12:57.790Z,3.00
2022-12-20T03:15:25.009Z,2.67
2022-12-20T03:17:52.206Z,2.50
2022-12-20T03:20:19.495Z,2.58
2022-12-20T03:22:46.837Z,3.03
2022-12-20T03:25:14.099Z,2.72
2022-12-20T03:27:41.457Z,2.80
2022-12-20T03:30:09.391Z,2.90
2022-12-20T03:32:40.021Z,2.70
2022-12-20T03:35:08.873Z,2.67
2022-12-20T03:37:37.258Z,2.10
2022-12-20T03:40:06.304Z,2.47
2022-12-20T03:42:34.746Z,2.42
2022-12-20T03:45:03.354Z,2.70
2022-12-20T03:47:31.855Z,2.72
2022-12-20T03:50:00.218Z,2.58
2022-12-20T03:52:28.503Z,2.40
2022-12-20T03:54:56.688Z,2.38
2022-12-20T03:57:24.832Z,2.40
2022-12-20T03:59:54.259Z,2.42
2022-12-20T04:02:23.067Z,2.13
2022-12-20T04:04:51.730Z,1.80
2022-12-20T04:07:19.729Z,2.10
2022-12-20T04:09:47.752Z,2.13
2022-12-20T04:12:15.743Z,2.50
2022-12-20T04:14:43.636Z,2.40
2022-12-20T04:17:11.680Z,1.70
2022-12-20T04:19:39.663Z,2.03
2022-12-20T04:22:07.551Z,1.90
2022-12-20T04:24:35.541Z,2.25
2022-12-20T04:27:03.592Z,1.85
2022-12-20T04:29:31.696Z,2.20
2022-12-20T04:31:59.733Z,1.52
2022-12-20T04:34:27.718Z,1.55
2022-12-20T04:36:55.653Z,1.80
2022-12-20T04:39:23.768Z,2.03
2022-12-20T04:41:51.926Z,1.98
2022-12-20T04:44:20.108Z,1.80
2022-12-20T04:46:48.383Z,1.95
2022-12-20T04:49:16.617Z,2.15
2022-12-20T04:51:44.871Z,1.90
2022-12-20T04:54:13.144Z,1.60
2022-12-20T04:56:41.406Z,2.38
2022-12-20T04:59:10.932Z,2.40
2022-12-20T05:01:39.274Z,1.85
2022-12-20T05:04:07.517Z,2.40
2022-12-20T05:06:35.760Z,1.92
2022-12-20T05:09:03.925Z,1.73
2022-12-20T05:11:32.162Z,1.80
2022-12-20T05:14:00.406Z,2.05
2022-12-20T05:16:28.692Z,1.73
2022-12-20T05:18:56.853Z,2.08
2022-12-20T05:21:43.958Z,2.00
2022-12-20T05:24:30.914Z,1.90
2022-12-20T05:26:59.041Z,1.92
2022-12-20T05:29:27.271Z,1.63
2022-12-20T05:31:55.742Z,2.00
2022-12-20T05:34:24.379Z,2.13
2022-12-20T05:36:52.604Z,1.73
2022-12-20T05:39:20.747Z,1.80
2022-12-20T05:41:49.237Z,1.60
2022-12-20T05:44:17.518Z,1.77
2022-12-20T05:46:45.735Z,1.90
2022-12-20T05:49:13.744Z,1.98
2022-12-20T05:51:41.893Z,1.95
2022-12-20T05:54:10.446Z,2.15
2022-12-20T05:56:38.535Z,1.50
2022-12-20T05:59:06.714Z,1.88
2022-12-20T06:01:34.949Z,1.88
2022-12-20T06:04:03.198Z,1.52
2022-12-20T06:06:31.404Z,1.92
2022-12-20T06:08:59.618Z,1.73
2022-12-20T06:11:30.192Z,1.95
2022-12-20T06:13:59.185Z,2.15
2022-12-20T06:16:27.628Z,2.28
2022-12-20T06:18:56.723Z,1.83
2022-12-20T06:21:25.303Z,1.70
2022-12-20T06:23:53.673Z,1.92
2022-12-20T06:26:23.296Z,2.10
2022-12-20T06:28:54.540Z,2.03
2022-12-20T06:31:22.857Z,1.88
2022-12-20T06:33:51.146Z,1.45
2022-12-20T06:36:19.448Z,1.65
2022-12-20T06:38:47.811Z,2.30
2022-12-20T06:41:16.148Z,2.42
2022-12-20T06:43:44.462Z,2.17
2022-12-20T06:46:12.788Z,1.90
2022-12-20T06:48:41.241Z,2.20
2022-12-20T06:51:09.585Z,2.00
2022-12-20T06:53:38.273Z,2.33
2022-12-20T06:56:06.727Z,2.28
2022-12-20T06:58:34.869Z,2.00
2022-12-20T07:01:02.820Z,2.05
2022-12-20T07:03:31.104Z,2.17
2022-12-20T07:05:59.358Z,2.20
2022-12-20T07:08:27.666Z,2.35
2022-12-20T07:10:56.517Z,2.33
2022-12-20T07:13:24.627Z,2.70
2022-12-20T07:16:01.307Z,2.20
2022-12-20T07:18:29.763Z,2.00
2022-12-20T07:21:01.971Z,2.30
2022-12-20T07:23:30.284Z,1.75
2022-12-20T07:26:00.088Z,2.15
2022-12-20T07:28:28.996Z,2.05
2022-12-20T07:31:00.187Z,2.58
2022-12-20T07:33:28.287Z,1.95
2022-12-20T07:36:05.070Z,2.00
2022-12-20T07:38:33.929Z,2.13
2022-12-20T07:41:06.763Z,2.05
2022-12-20T07:43:34.999Z,2.40
2022-12-20T07:46:03.706Z,1.85
2022-12-20T07:48:31.812Z,2.30
2022-12-20T07:51:10.801Z,2.08
2022-12-20T07:53:43.616Z,2.05
2022-12-20T07:56:12.291Z,2.00
2022-12-20T07:58:41.418Z,2.45
2022-12-20T08:01:10.422Z,2.10
2022-12-20T08:03:42.772Z,2.03
2022-12-20T08:06:10.767Z,2.17
2022-12-20T08:08:44.036Z,1.83
2022-12-20T08:11:12.582Z,1.63
2022-12-20T08:13:46.241Z,2.17
2022-12-20T08:16:14.526Z,2.00
2022-12-20T08:18:42.515Z,1.67
2022-12-20T08:21:13.129Z,1.80
2022-12-20T08:23:40.727Z,2.10
2022-12-20T08:26:08.035Z,1.90
2022-12-20T08:28:38.332Z,1.42
2022-12-20T08:31:08.374Z,1.73
2022-12-20T08:33:37.335Z,1.90
2022-12-20T08:36:07.540Z,1.85
2022-12-20T08:38:35.620Z,1.40
2022-12-20T08:41:09.178Z,1.63
2022-12-20T08:43:36.140Z,1.63
2022-12-20T08:46:03.838Z,1.92
2022-12-20T08:48:32.426Z,1.63
2022-12-20T08:51:01.796Z,1.50
2022-12-20T08:53:32.685Z,1.20
2022-12-20T08:56:11.892Z,1.20
2022-12-20T08:58:45.196Z,1.20
2022-12-20T09:01:18.932Z,1.15
2022-12-20T09:03:47.849Z,1.40
2022-12-20T09:06:18.044Z,1.30
2022-12-20T09:08:46.081Z,1.40
2022-12-20T09:11:19.616Z,1.15
2022-12-20T09:13:49.778Z,1.45
2022-12-20T09:16:19.997Z,1.25
2022-12-20T09:19:02.451Z,1.20
2022-12-20T09:21:32.862Z,0.98
2022-12-20T09:24:00.548Z,1.48
2022-12-20T09:26:28.124Z,1.00
2022-12-20T09:28:55.869Z,1.30
2022-12-20T09:31:26.024Z,1.30
2022-12-20T09:33:58.288Z,1.05
2022-12-20T09:36:27.454Z,1.10
2022-12-20T09:38:55.549Z,1.35
2022-12-20T09:41:30.077Z,1.50
2022-12-20T09:43:59.292Z,1.27
2022-12-20T09:46:27.202Z,1.42
2022-12-20T09:48:54.609Z,1.20
2022-12-20T09:51:21.687Z,1.30
2022-12-20T09:54:23.955Z,1.40
2022-12-20T09:57:09.693Z,1.00
2022-12-20T09:59:41.402Z,1.33
2022-12-20T10:05:51.779Z,1.30
2022-12-20T10:08:54.193Z,1.90
2022-12-20T10:11:48.086Z,1.42
2022-12-20T10:14:57.833Z,1.35
2022-12-20T10:18:19.960Z,1.00
2022-12-20T10:21:01.406Z,1.55
2022-12-20T10:23:39.518Z,1.20
2022-12-20T10:26:11.707Z,1.50
2022-12-20T10:28:39.755Z,1.30
2022-12-20T10:31:13.547Z,1.20
2022-12-20T10:33:41.589Z,1.42
2022-12-20T10:36:38.502Z,1.27
2022-12-20T10:39:10.284Z,1.40
2022-12-20T10:41:42.973Z,1.63
2022-12-20T10:44:23.295Z,1.40
2022-12-20T10:46:55.049Z,1.33
2022-12-20T10:49:33.166Z,1.20
2022-12-20T10:52:08.023Z,1.17
2022-12-20T10:54:40.313Z,1.20
2022-12-20T10:57:22.638Z,1.10
2022-12-20T10:59:55.986Z,1.05
2022-12-20T11:02:41.268Z,1.55
2022-12-20T11:05:12.880Z,1.50
2022-12-20T11:10:45.442Z,1.70
2022-12-20T11:13:26.807Z,1.25
2022-12-20T11:15:57.690Z,1.42
2022-12-20T11:18:56.851Z,1.40
2022-12-20T11:21:45.119Z,1.48
2022-12-20T11:24:37.148Z,1.50
2022-12-20T11:27:16.585Z,1.30
2022-12-20T11:30:00.518Z,1.40
2022-12-20T11:33:04.374Z,1.20
2022-12-20T11:36:15.822Z,1.88
2022-12-20T11:39:17.111Z,1.08
2022-12-20T11:42:07.069Z,1.50
2022-12-20T11:45:09.587Z,1.52
2022-12-20T11:48:02.313Z,1.58
2022-12-20T11:51:02.815Z,1.37
2022-12-20T11:53:42.605Z,1.50
2022-12-20T11:56:22.162Z,1.35
2022-12-20T11:58:56.133Z,1.63
2022-12-20T12:01:57.846Z,1.45
2022-12-20T12:04:34.185Z,1.63
2022-12-20T12:07:22.782Z,1.52
2022-12-20T12:10:17.018Z,1.88
2022-12-20T12:12:58.119Z,1.75
2022-12-20T12:16:10.702Z,1.67
2022-12-20T12:18:39.831Z,1.27
2022-12-20T12:21:48.136Z,1.42
2022-12-20T12:24:38.661Z,1.60
2022-12-20T12:27:11.289Z,1.33
2022-12-20T12:29:42.667Z,1.30
2022-12-20T12:32:51.326Z,1.70
2022-12-20T12:35:35.438Z,1.50
2022-12-20T12:38:28.263Z,2.22
2022-12-20T12:41:22.438Z,1.88
2022-12-20T12:44:02.671Z,1.70
2022-12-20T12:46:35.158Z,2.55
2022-12-20T12:49:13.429Z,2.10
2022-12-20T12:51:50.506Z,1.65
2022-12-20T12:54:29.207Z,1.50
2022-12-20T12:57:18.044Z,1.55
2022-12-20T12:59:50.308Z,1.83
2022-12-20T13:02:17.742Z,2.15
2022-12-20T13:05:26.205Z,1.60
2022-12-20T13:07:53.668Z,1.95
2022-12-20T13:10:22.053Z,2.08
2022-12-20T13:12:51.838Z,2.13
2022-12-20T13:15:21.677Z,1.55
2022-12-20T13:18:13.536Z,1.50
2022-12-20T13:20:40.707Z,1.65
2022-12-20T13:23:10.631Z,1.63
2022-12-20T13:25:41.496Z,1.50
2022-12-20T13:28:23.357Z,1.60
2022-12-20T13:31:02.624Z,1.55
2022-12-20T13:33:43.006Z,1.65
2022-12-20T13:36:09.908Z,1.52
2022-12-20T13:38:53.472Z,1.35
2022-12-20T13:41:40.019Z,1.20
2022-12-20T13:44:17.085Z,1.58
2022-12-20T13:47:03.881Z,1.30
2022-12-20T13:49:44.457Z,1.20
2022-12-20T13:52:11.288Z,1.40
2022-12-20T13:55:01.059Z,1.27
2022-12-20T13:57:43.766Z,1.23
2022-12-20T14:00:31.214Z,1.88
2022-12-20T14:02:58.474Z,1.30
2022-12-20T14:05:32.804Z,1.90
2022-12-20T14:08:01.886Z,1.60
2022-12-20T14:10:32.420Z,1.85
2022-12-20T14:13:00.129Z,2.10
2022-12-20T14:15:31.871Z,2.00
2022-12-20T14:18:21.413Z,1.67
2022-12-20T14:20:58.815Z,1.77
2022-12-20T14:23:32.530Z,2.30
2022-12-20T14:26:01.818Z,2.20
2022-12-20T14:28:41.736Z,2.30
2022-12-20T14:31:25.405Z,2.40
2022-12-20T14:34:06.513Z,1.83
2022-12-20T14:36:36.213Z,1.90
2022-12-20T14:39:26.196Z,2.00
2022-12-20T14:42:02.217Z,2.30
2022-12-20T14:44:31.427Z,2.03
2022-12-20T14:47:12.904Z,2.08
2022-12-20T14:49:40.949Z,2.10
2022-12-20T14:52:21.033Z,2.10
2022-12-20T14:55:09.012Z,2.60
2022-12-20T14:57:36.651Z,1.88
2022-12-20T15:00:18.570Z,1.63
2022-12-20T15:02:56.980Z,1.92
2022-12-20T15:05:36.775Z,1.92
2022-12-20T15:08:28.870Z,1.55
2022-12-20T15:11:22.517Z,2.00
2022-12-20T15:13:54.484Z,1.80
2022-12-20T15:16:28.100Z,2.30
2022-12-20T15:18:57.760Z,2.13
2022-12-20T15:21:35.455Z,2.70
2022-12-20T15:24:08.788Z,2.50
2022-12-20T15:26:36.583Z,2.08
2022-12-20T15:29:04.436Z,2.60
2022-12-20T15:31:35.419Z,2.15
2022-12-20T15:34:16.053Z,2.40
2022-12-20T15:36:42.939Z,2.80
2022-12-20T15:39:13.632Z,3.17
2022-12-20T15:41:46.360Z,2.70
2022-12-20T15:44:16.533Z,3.90
2022-12-20T15:46:44.445Z,2.78
2022-12-20T15:49:21.327Z,3.28
2022-12-20T15:51:51.081Z,2.90
2022-12-20T15:54:35.824Z,3.47
2022-12-20T15:57:09.277Z,2.60
2022-12-20T16:02:27.887Z,1.83
2022-12-20T16:04:55.450Z,2.50
2022-12-20T16:07:23.466Z,1.88
2022-12-20T16:09:50.424Z,2.28
2022-12-20T16:12:25.768Z,2.78
2022-12-20T16:14:52.927Z,2.47
2022-12-20T16:17:19.959Z,3.45
2022-12-20T16:19:46.876Z,2.10
2022-12-20T16:22:22.664Z,2.30
2022-12-20T16:24:50.160Z,3.25
2022-12-20T16:27:17.455Z,3.88
2022-12-20T16:29:45.556Z,2.80
2022-12-20T16:32:18.287Z,2.30
2022-12-20T16:34:46.093Z,2.28
2022-12-20T16:37:13.357Z,2.17
2022-12-20T16:39:41.473Z,2.25
2022-12-20T16:42:17.697Z,1.80
2022-12-20T16:44:46.110Z,2.20
2022-12-20T16:47:14.634Z,2.30
2022-12-20T16:49:51.269Z,2.53
2022-12-20T16:52:20.057Z,2.78
2022-12-20T16:54:46.978Z,2.53
2022-12-20T16:57:13.875Z,2.92
2022-12-20T16:59:40.940Z,2.35
2022-12-20T17:02:29.631Z,2.17
2022-12-20T17:04:57.135Z,2.20
2022-12-20T17:07:24.072Z,2.20
2022-12-20T17:09:51.115Z,2.38
2022-12-20T17:12:21.385Z,2.40
2022-12-20T17:14:49.304Z,2.33
2022-12-20T17:17:17.389Z,2.00
2022-12-20T17:19:44.704Z,1.88
2022-12-20T17:22:24.552Z,1.90
2022-12-20T17:24:51.515Z,2.22
2022-12-20T17:27:19.053Z,2.35
2022-12-20T17:29:46.051Z,2.00
2022-12-20T17:32:24.599Z,2.33
2022-12-20T17:34:53.090Z,2.60
2022-12-20T17:37:21.086Z,3.35
2022-12-20T17:39:48.496Z,2.92
2022-12-20T17:42:16.649Z,2.10
2022-12-20T17:44:43.644Z,2.75
2022-12-20T17:47:11.827Z,2.35
2022-12-20T17:49:39.208Z,2.42
2022-12-20T17:52:06.238Z,3.10
2022-12-20T17:54:39.564Z,2.85
2022-12-20T17:57:15.532Z,4.10
2022-12-20T17:59:42.981Z,5.85
2022-12-20T18:02:23.824Z,4.18
2022-12-20T18:04:51.492Z,5.20
2022-12-20T18:07:18.643Z,4.80
2022-12-20T18:09:48.051Z,4.05
2022-12-20T18:12:15.062Z,3.38
2022-12-20T18:14:41.892Z,3.20
2022-12-20T18:17:08.819Z,3.20
2022-12-20T18:19:35.885Z,3.92
2022-12-20T18:22:04.732Z,3.72
2022-12-20T18:24:32.061Z,1.73
2022-12-20T18:26:58.873Z,2.00
2022-12-20T18:29:25.911Z,2.70
2022-12-20T18:31:52.854Z,2.28
2022-12-20T18:34:19.700Z,2.03
2022-12-20T18:36:46.607Z,2.28
2022-12-20T18:39:14.253Z,1.92
2022-12-20T18:41:42.977Z,2.08
2022-12-20T18:44:11.705Z,2.88
2022-12-20T18:46:38.888Z,2.13
2022-12-20T18:49:05.936Z,2.30
2022-12-20T18:51:38.513Z,2.58
2022-12-20T18:54:08.334Z,2.47
2022-12-20T18:56:38.040Z,2.33
2022-12-20T18:59:11.335Z,2.70
2022-12-20T19:01:40.727Z,3.03
2022-12-20T19:04:08.305Z,2.83
2022-12-20T19:06:37.383Z,2.60
2022-12-20T19:09:07.578Z,4.05
2022-12-20T19:11:34.693Z,3.35
2022-12-20T19:14:01.680Z,3.45
2022-12-20T19:16:31.953Z,3.47
2022-12-20T19:19:00.465Z,4.10
2022-12-20T19:21:30.520Z,3.70
2022-12-20T19:24:03.825Z,2.58
2022-12-20T19:26:31.285Z,3.10
2022-12-20T19:28:58.472Z,3.42
2022-12-20T19:31:29.064Z,3.65
2022-12-20T19:34:06.632Z,3.17
2022-12-20T19:36:43.709Z,3.20
2022-12-20T19:39:17.893Z,3.55
2022-12-20T19:41:54.997Z,3.58
2022-12-20T19:44:26.926Z,3.85
2022-12-20T19:46:53.898Z,3.15
2022-12-20T19:49:21.037Z,3.92
2022-12-20T19:51:49.084Z,3.70
2022-12-20T19:54:15.951Z,2.67
2022-12-20T19:56:42.894Z,3.20
2022-12-20T19:59:11.801Z,3.53
2022-12-20T20:01:38.844Z,3.35
2022-12-20T20:04:06.251Z,4.30
2022-12-20T20:06:33.337Z,3.15
2022-12-20T20:09:00.137Z,2.60
2022-12-20T20:11:28.436Z,3.67
2022-12-20T20:13:56.271Z,3.20
2022-12-20T20:16:23.946Z,3.15
2022-12-20T20:18:51.224Z,4.53
2022-12-20T20:21:22.557Z,3.45
2022-12-20T20:23:52.596Z,3.53
2022-12-20T20:26:26.401Z,3.50
2022-12-20T20:28:53.924Z,3.92
2022-12-20T20:31:22.339Z,3.97
2022-12-20T20:33:50.472Z,3.67
2022-12-20T20:36:22.517Z,3.80
2022-12-20T20:38:51.050Z,3.07
2022-12-20T20:41:18.309Z,3.88
2022-12-20T20:43:45.372Z,3.45
2022-12-20T20:46:15.420Z,3.45
2022-12-20T20:48:42.926Z,3.03
2022-12-20T20:51:11.653Z,3.50
2022-12-20T20:53:39.443Z,3.47
2022-12-20T20:56:07.957Z,3.97
2022-12-20T20:58:35.894Z,4.55
2022-12-20T21:01:05.886Z,3.28
2022-12-20T21:03:33.345Z,3.20
2022-12-20T21:06:36.999Z,3.65
2022-12-20T21:08:47.805Z,2.88
2022-12-20T21:11:14.820Z,2.53
2022-12-20T21:13:41.879Z,3.42
2022-12-20T21:16:20.181Z,4.03
2022-12-20T21:18:58.376Z,3.15
2022-12-20T21:21:26.639Z,3.15
2022-12-20T21:23:54.607Z,3.67
2022-12-20T21:26:23.089Z,3.95
2022-12-20T21:28:49.947Z,2.90
2022-12-20T21:31:19.765Z,4.60
2022-12-20T21:33:47.083Z,2.50
2022-12-20T21:36:17.564Z,3.70
2022-12-20T21:38:56.839Z,4.00
2022-12-20T21:41:26.598Z,4.15
2022-12-20T21:43:58.930Z,4.25
2022-12-20T21:46:28.415Z,3.42
2022-12-20T21:48:55.855Z,3.92
2022-12-20T21:51:25.364Z,3.50
2022-12-20T21:53:59.007Z,3.03
2022-12-20T21:56:28.354Z,4.07
2022-12-20T21:58:55.539Z,3.65
2022-12-20T22:01:26.888Z,3.85
2022-12-20T22:03:59.003Z,3.33
2022-12-20T22:06:28.006Z,3.77
2022-12-20T22:09:00.435Z,3.45
2022-12-20T22:11:28.280Z,4.25
2022-12-20T22:13:56.070Z,3.67
2022-12-20T22:16:26.642Z,3.90
2022-12-20T22:18:56.294Z,3.78
2022-12-20T22:21:27.256Z,4.22
2022-12-20T22:23:58.980Z,3.42
2022-12-20T22:26:29.960Z,3.55
2022-12-20T22:29:00.277Z,3.20
2022-12-20T22:31:27.991Z,3.50
2022-12-20T22:33:56.990Z,2.95
2022-12-20T22:36:24.879Z,4.97
2022-12-20T22:38:53.416Z,4.50
2022-12-20T22:41:23.198Z,4.07
2022-12-20T22:43:50.607Z,4.50
2022-12-20T22:46:18.843Z,4.30
2022-12-20T22:48:46.489Z,4.25
2022-12-20T22:51:17.381Z,3.85
2022-12-20T22:53:45.251Z,2.97
2022-12-20T22:56:12.268Z,3.85
2022-12-20T22:58:41.283Z,2.78
2022-12-20T23:01:11.194Z,2.92
2022-12-20T23:03:38.199Z,3.85
2022-12-20T23:06:07.507Z,3.50
2022-12-20T23:08:37.330Z,3.20
2022-12-20T23:11:37.741Z,3.55
2022-12-20T23:14:28.861Z,3.30
2022-12-20T23:16:56.969Z,3.60
2022-12-20T23:19:23.848Z,3.40
2022-12-20T23:22:13.484Z,2.97
2022-12-20T23:24:40.363Z,3.53
2022-12-20T23:27:07.715Z,2.75
2022-12-20T23:29:34.620Z,3.80
2022-12-20T23:32:01.465Z,3.30
2022-12-20T23:34:28.361Z,2.63
2022-12-20T23:36:55.242Z,3.10
2022-12-20T23:39:22.037Z,3.30
2022-12-20T23:41:48.900Z,3.65
2022-12-20T23:44:15.695Z,3.15
2022-12-20T23:46:42.559Z,3.20
2022-12-20T23:49:09.366Z,3.25
2022-12-20T23:51:36.194Z,4.10
2022-12-20T23:54:03.090Z,3.30
2022-12-20T23:56:29.896Z,3.95
2022-12-20T23:58:57.726Z,3.90
